Home > Products > Valid Products > TAF

000
FTUS43 KPAH 300520
TAFCGI
TAF
KCGI 300520Z 3006/0106 26002KT P6SM SKC
     FM301000 00000KT 4SM BR SKC
     FM301200 28007KT P6SM SCT040=



000
FTUS43 KPAH 300520
TAFPAH
TAF
KPAH 300520Z 3006/0106 24002KT P6SM SKC
     FM301400 28008KT P6SM SCT040
     FM010100 22003KT P6SM SKC=



000
FTUS43 KPAH 300520
TAFEVV
TAF
KEVV 300520Z 3006/0106 23002KT P6SM SKC
     FM301300 26009G17KT P6SM SCT040
     FM010100 VRB03KT P6SM BKN040=



000
FTUS43 KPAH 292331
TAFPAH
TAF
KPAH 292331Z 3000/3024 26002KT P6SM SKC
     FM301300 28007KT P6SM SCT040=



000
FTUS43 KPAH 292331
TAFEVV
TAF
KEVV 292331Z 3000/3024 24003KT P6SM SKC
     FM301300 26009G17KT P6SM SCT040=



000
FTUS43 KPAH 292331
TAFCGI
TAF
KCGI 292331Z 3000/3024 28003KT P6SM SKC
     FM300800 00000KT 4SM BR SKC
     FM301300 27007KT P6SM SCT040=



000
FTUS43 KPAH 292004 AAB
TAFPAH
TAF AMD
KPAH 292004Z 2920/3018 30010KT P6SM SCT045
     FM300000 VRB03KT P6SM SKC
     FM301300 26007KT P6SM SCT035=



000
FTUS43 KPAH 291904 AAA
TAFEVV
TAF AMD
KEVV 291904Z 2919/3018 30009KT P6SM BKN045
      TEMPO 2921/3001 SCT045
     FM300100 VRB03KT P6SM SKC
     FM301300 25007KT P6SM SCT035=



000
FTUS43 KPAH 291725
TAFPAH
TAF
KPAH 291725Z 2918/3018 28009KT P6SM SCT040
     FM292000 29008KT P6SM VCTS BKN045CB
     FM300000 VRB03KT P6SM SKC
     FM301300 26007KT P6SM SCT035=



000
FTUS43 KPAH 291725
TAFCGI
TAF
KCGI 291725Z 2918/3018 31007KT P6SM SCT040
      TEMPO 2919/2922 BKN040
     FM300000 VRB03KT P6SM SKC
     FM300800 00000KT 4SM BR SKC
     FM301300 26007KT P6SM SCT035=



000
FTUS43 KPAH 291725
TAFEVV
TAF
KEVV 291725Z 2918/3018 27009KT P6SM BKN040
     FM300100 VRB03KT P6SM SKC
     FM301300 25007KT P6SM SCT035=



000
FTUS43 KPAH 291725
TAFEVV
TAF
KEVV 291725Z 2918/3018 27009KT P6SM BKN040
     FM300100 VRB03KT P6SM SKC
     FM301300 25007KT P6SM SCT035=



000
FTUS43 KPAH 291725
TAFPAH
TAF
KPAH 291725Z 2918/3018 28009KT P6SM SCT040
     FM292000 29008KT P6SM VCTS BKN045CB
     FM300000 VRB03KT P6SM SKC
     FM301300 26007KT P6SM SCT035=



000
FTUS43 KPAH 291725
TAFCGI
TAF
KCGI 291725Z 2918/3018 31007KT P6SM SCT040
      TEMPO 2919/2922 BKN040
     FM300000 VRB03KT P6SM SKC
     FM300800 00000KT 4SM BR SKC
     FM301300 26007KT P6SM SCT035=



000
FTUS43 KPAH 291402 AAB
TAFPAH
TAF AMD
KPAH 291402Z 2914/3012 24012G18KT P6SM SCT030
     FM291600 27009KT P6SM SCT030 BKN050
     FM300000 VRB03KT P6SM SCT070=



000
FTUS43 KPAH 291402 AAB
TAFPAH
TAF AMD
KPAH 291402Z 2914/3012 24012G18KT P6SM SCT030
     FM291600 27009KT P6SM SCT030 BKN050
     FM300000 VRB03KT P6SM SCT070=



000
FTUS43 KPAH 291316 AAA
TAFEVV
TAF AMD
KEVV 291316Z 2913/3012 23009KT P6SM SCT025 BKN050
     FM291430 22010KT P6SM BKN020
     FM291700 22011KT P6SM SCT025 BKN050
     FM300000 VRB03KT P6SM SCT060=



000
FTUS43 KPAH 291120
TAFCGI
TAF
KCGI 291120Z 2912/3012 24008KT P6SM SCT050 BKN100
     FM291500 28009KT P6SM SCT025 BKN050
     FM300000 VRB03KT P6SM SCT060=



000
FTUS43 KPAH 291120
TAFPAH
TAF
KPAH 291120Z 2912/3012 22008KT P6SM SCT050 BKN100
     FM291500 27009KT P6SM SCT025 BKN050
     FM300000 VRB03KT P6SM SCT070=



000
FTUS43 KPAH 291120
TAFEVV
TAF
KEVV 291120Z 2912/3012 21010KT P6SM SCT050 BKN100
     FM291500 25011G16KT P6SM SCT025 BKN050
     FM300000 VRB03KT P6SM SCT060=



000
FTUS43 KPAH 290520
TAFPAH
TAF
KPAH 290520Z 2906/3006 18005KT P6SM VCSH SCT060 BKN100
      TEMPO 2906/2907 3SM -SHRA BR BKN035
     FM290700 22007KT P6SM SCT070
     FM291500 27008KT P6SM SCT050
     FM300000 VRB03KT P6SM SCT070=



000
FTUS43 KPAH 290520
TAFEVV
TAF
KEVV 290520Z 2906/3006 20007KT P6SM VCSH SCT040 BKN070
      TEMPO 2906/2908 3SM -SHRA BR BKN035
     FM290800 22008KT P6SM SCT070
     FM291500 26011G16KT P6SM BKN040
     FM300000 VRB03KT P6SM SCT070=



000
FTUS43 KPAH 290520
TAFCGI
TAF
KCGI 290520Z 2906/3006 22007KT P6SM SCT070
     FM291500 30008KT P6SM SCT050
     FM300000 VRB03KT P6SM SCT070=



000
FTUS43 KPAH 290520
TAFPAH
TAF
KPAH 290520Z 2906/3006 18005KT P6SM VCSH SCT060 BKN100
      TEMPO 2906/2907 3SM -SHRA BR BKN035
     FM290700 22007KT P6SM SCT070
     FM291500 27008KT P6SM SCT050
     FM300000 VRB03KT P6SM SCT070=



000
FTUS43 KPAH 290520
TAFEVV
TAF
KEVV 290520Z 2906/3006 20007KT P6SM VCSH SCT040 BKN070
      TEMPO 2906/2908 3SM -SHRA BR BKN035
     FM290800 22008KT P6SM SCT070
     FM291500 26011G16KT P6SM BKN040
     FM300000 VRB03KT P6SM SCT070=



000
FTUS43 KPAH 290520
TAFCGI
TAF
KCGI 290520Z 2906/3006 22007KT P6SM SCT070
     FM291500 30008KT P6SM SCT050
     FM300000 VRB03KT P6SM SCT070=



000
FTUS43 KPAH 290336 AAB
TAFPAH
TAF AMD
KPAH 290336Z 2904/2924 21006KT P6SM VCSH SCT060 BKN100
      TEMPO 2904/2907 3SM -TSRA BR BKN035CB
     FM290700 23007KT P6SM BKN150
     FM291500 28008KT P6SM SCT050=



000
FTUS43 KPAH 290247 AAA
TAFEVV
TAF AMD
KEVV 290247Z 2903/2924 20007KT P6SM VCSH SCT040 BKN070
      TEMPO 2903/2907 3SM SHRA BKN035
     FM290700 22007KT P6SM BKN150
     FM291500 26011G16KT P6SM BKN040=



000
FTUS43 KPAH 290247 AAA
TAFEVV
TAF AMD
KEVV 290247Z 2903/2924 20007KT P6SM VCSH SCT040 BKN070
      TEMPO 2903/2907 3SM SHRA BKN035
     FM290700 22007KT P6SM BKN150
     FM291500 26011G16KT P6SM BKN040=



000
FTUS43 KPAH 290245 AAA
TAFCGI
TAF AMD
KCGI 290245Z 2903/2924 21007KT P6SM VCSH SCT060 BKN100
      TEMPO 2903/2905 4SM -SHRA BR BKN035
     FM290500 24007KT P6SM BKN150
     FM291500 30008KT P6SM SCT050=



000
FTUS43 KPAH 290245 AAA
TAFCGI
TAF AMD
KCGI 290245Z 2903/2924 21007KT P6SM VCSH SCT060 BKN100
      TEMPO 2903/2905 4SM -SHRA BR BKN035
     FM290500 24007KT P6SM BKN150
     FM291500 30008KT P6SM SCT050=



000
FTUS43 KPAH 282340
TAFCGI
TAF
KCGI 282340Z 2900/2924 21007KT P6SM VCSH SCT060 BKN100
     FM290500 24007KT P6SM BKN150
     FM291500 30008KT P6SM SCT050=



000
FTUS43 KPAH 282340
TAFEVV
TAF
KEVV 282340Z 2900/2924 20007KT P6SM VCSH SCT040 BKN070
     FM290700 22007KT P6SM BKN150
     FM291500 26011G16KT P6SM BKN040=



000
FTUS43 KPAH 282340
TAFPAH
TAF
KPAH 282340Z 2900/2924 21006KT P6SM SCT070
     FM290200 21006KT P6SM VCSH SCT060 BKN100
     FM290700 23007KT P6SM BKN150
     FM291500 28008KT P6SM SCT050=



000
FTUS43 KPAH 282134 AAA
TAFEVV
TAF AMD
KEVV 282134Z 2822/2918 20005KT P6SM BKN070
      TEMPO 2822/2902 6SM -SHRA
     FM291200 24010KT P6SM BKN040=



000
FTUS43 KPAH 281728
TAFPAH
TAF
KPAH 281728Z 2818/2918 22006KT P6SM SCT040
     FM290000 21005KT P6SM BKN100
     FM291400 26008KT P6SM SCT035=



000
FTUS43 KPAH 281728
TAFCGI
TAF
KCGI 281728Z 2818/2918 22007KT P6SM SCT040
     FM290000 20006KT P6SM VCSH BKN100
     FM290500 23007KT P6SM BKN150
     FM291400 28008KT P6SM SCT035=



000
FTUS43 KPAH 281728
TAFCGI
TAF
KCGI 281728Z 2818/2918 22007KT P6SM SCT040
     FM290000 20006KT P6SM VCSH BKN100
     FM290500 23007KT P6SM BKN150
     FM291400 28008KT P6SM SCT035=



000
FTUS43 KPAH 281728
TAFPAH
TAF
KPAH 281728Z 2818/2918 22006KT P6SM SCT040
     FM290000 21005KT P6SM BKN100
     FM291400 26008KT P6SM SCT035=



000
FTUS43 KPAH 281728
TAFEVV
TAF
KEVV 281728Z 2818/2918 24005KT P6SM BKN050
     FM290000 18005KT P6SM BKN080
      TEMPO 2900/2904 6SM -SHRA
     FM291200 24010KT P6SM BKN040=



000
FTUS43 KPAH 281728
TAFEVV
TAF
KEVV 281728Z 2818/2918 24005KT P6SM BKN050
     FM290000 18005KT P6SM BKN080
      TEMPO 2900/2904 6SM -SHRA
     FM291200 24010KT P6SM BKN040=



000
FTUS43 KPAH 281120
TAFCGI
TAF
KCGI 281120Z 2812/2912 00000KT P6SM SKC
     FM281500 24006KT P6SM SCT040
     FM290000 20006KT P6SM SCT120 BKN250
     FM290500 23007KT P6SM VCSH SCT040 BKN120=



000
FTUS43 KPAH 281120
TAFEVV
TAF
KEVV 281120Z 2812/2912 00000KT P6SM SKC
     FM281500 24007KT P6SM SCT040
     FM290000 18006KT P6SM SCT100 BKN250
     FM290600 21007KT P6SM VCSH SCT040 BKN100=



000
FTUS43 KPAH 281120
TAFPAH
TAF
KPAH 281120Z 2812/2912 00000KT P6SM SKC
     FM281500 24006KT P6SM SCT040
     FM290000 20006KT P6SM SCT120 BKN250
     FM290600 22007KT P6SM VCSH SCT040 BKN120=



000
FTUS43 KPAH 280520
TAFEVV
TAF
KEVV 280520Z 2806/2906 00000KT P6SM SKC
     FM281500 24007KT P6SM SCT040
     FM290000 18006KT P6SM SCT100 BKN200=



000
FTUS43 KPAH 280520
TAFEVV
TAF
KEVV 280520Z 2806/2906 00000KT P6SM SKC
     FM281500 24007KT P6SM SCT040
     FM290000 18006KT P6SM SCT100 BKN200=



000
FTUS43 KPAH 280520
TAFCGI
TAF
KCGI 280520Z 2806/2906 00000KT P6SM SKC
      TEMPO 2809/2812 4SM BR
     FM281500 24006KT P6SM SCT040
     FM290000 20006KT P6SM SCT120 BKN200=



000
FTUS43 KPAH 280520
TAFPAH
TAF
KPAH 280520Z 2806/2906 00000KT P6SM SKC
      TEMPO 2810/2812 5SM BR
     FM281500 24006KT P6SM SCT040
     FM290000 20006KT P6SM SCT120 BKN200=



000
FTUS43 KPAH 280520
TAFCGI
TAF
KCGI 280520Z 2806/2906 00000KT P6SM SKC
      TEMPO 2809/2812 4SM BR
     FM281500 24006KT P6SM SCT040
     FM290000 20006KT P6SM SCT120 BKN200=



000
FTUS43 KPAH 272336
TAFEVV
TAF
KEVV 272336Z 2800/2824 33007KT P6SM FEW050
     FM280100 VRB02KT P6SM SKC
     FM281500 24006KT P6SM SCT040=



000
FTUS43 KPAH 272336
TAFCGI
TAF
KCGI 272336Z 2800/2824 33004KT P6SM SKC
      TEMPO 2809/2812 4SM BR
     FM281500 24006KT P6SM SCT040=



000
FTUS43 KPAH 272336
TAFPAH
TAF
KPAH 272336Z 2800/2824 33004KT P6SM SKC
      TEMPO 2810/2812 5SM BR
     FM281500 24006KT P6SM SCT040=



000
FTUS43 KPAH 272336
TAFEVV
TAF
KEVV 272336Z 2800/2824 33007KT P6SM FEW050
     FM280100 VRB02KT P6SM SKC
     FM281500 24006KT P6SM SCT040=



000
FTUS43 KPAH 272336
TAFPAH
TAF
KPAH 272336Z 2800/2824 33004KT P6SM SKC
      TEMPO 2810/2812 5SM BR
     FM281500 24006KT P6SM SCT040=



000
FTUS43 KPAH 272336
TAFCGI
TAF
KCGI 272336Z 2800/2824 33004KT P6SM SKC
      TEMPO 2809/2812 4SM BR
     FM281500 24006KT P6SM SCT040=



000
FTUS43 KPAH 272015 AAB
TAFPAH
TAF AMD
KPAH 272015Z 2720/2818 34010KT P6SM SCT050
      TEMPO 2720/2723 BKN050
     FM280100 36004KT P6SM SKC
     FM281000 00000KT 5SM BR SKC
     FM281300 24004KT P6SM SCT030=



000
FTUS43 KPAH 272012 AAA
TAFEVV
TAF AMD
KEVV 272012Z 2720/2818 33010G16KT P6SM VCSH BKN050
     FM280000 33005KT P6SM FEW045
     FM280400 00000KT P6SM SKC
     FM281300 24005KT P6SM SCT030=



000
FTUS43 KPAH 271732
TAFCGI
TAF
KCGI 271732Z 2718/2818 36012KT P6SM SCT040
      TEMPO 2718/2722 BKN040
     FM280000 35004KT P6SM SKC
     FM280900 00000KT 4SM BR SKC
     FM281300 24005KT P6SM SCT030=



000
FTUS43 KPAH 271732
TAFEVV
TAF
KEVV 271732Z 2718/2818 36010G16KT P6SM BKN040
      TEMPO 2718/2722 SCT040
     FM280000 33005KT P6SM FEW045
     FM280400 00000KT P6SM SKC
     FM281300 24005KT P6SM SCT030=



000
FTUS43 KPAH 271732
TAFPAH
TAF
KPAH 271732Z 2718/2818 01010G16KT P6SM SCT040
      TEMPO 2719/2723 BKN040
     FM280100 36004KT P6SM SKC
     FM281000 00000KT 5SM BR SKC
     FM281300 24004KT P6SM SCT030=



000
FTUS43 KPAH 271732
TAFCGI
TAF
KCGI 271732Z 2718/2818 36012KT P6SM SCT040
      TEMPO 2718/2722 BKN040
     FM280000 35004KT P6SM SKC
     FM280900 00000KT 4SM BR SKC
     FM281300 24005KT P6SM SCT030=



000
FTUS43 KPAH 271732
TAFEVV
TAF
KEVV 271732Z 2718/2818 36010G16KT P6SM BKN040
      TEMPO 2718/2722 SCT040
     FM280000 33005KT P6SM FEW045
     FM280400 00000KT P6SM SKC
     FM281300 24005KT P6SM SCT030=



000
FTUS43 KPAH 271732
TAFPAH
TAF
KPAH 271732Z 2718/2818 01010G16KT P6SM SCT040
      TEMPO 2719/2723 BKN040
     FM280100 36004KT P6SM SKC
     FM281000 00000KT 5SM BR SKC
     FM281300 24004KT P6SM SCT030=



000
FTUS43 KPAH 271600 AAB
TAFCGI
TAF AMD
KCGI 271600Z 2716/2812 36012KT P6SM BKN035
      TEMPO 2716/2719 SCT035
     FM272200 36008KT P6SM SCT035
     FM280100 VRB03KT P6SM SKC
      TEMPO 2809/2812 5SM BR=



000
FTUS43 KPAH 271559 AAB
TAFPAH
TAF AMD
KPAH 271559Z 2716/2812 36012G18KT P6SM BKN035
      TEMPO 2716/2719 SCT035
     FM272300 36008KT P6SM SCT035
     FM280200 VRB03KT P6SM SKC=



000
FTUS43 KPAH 271559 AAB
TAFPAH
TAF AMD
KPAH 271559Z 2716/2812 36012G18KT P6SM BKN035
      TEMPO 2716/2719 SCT035
     FM272300 36008KT P6SM SCT035
     FM280200 VRB03KT P6SM SKC=



000
FTUS43 KPAH 271507 AAA
TAFEVV
TAF AMD
KEVV 271507Z 2715/2812 34010KT P6SM BKN025
      TEMPO 2715/2719 BKN035
     FM271900 34012KT P6SM BKN035
     FM272300 33007KT P6SM SCT035
     FM280200 VRB02KT P6SM SKC=



000
FTUS43 KPAH 271314 AAA
TAFCGI
TAF AMD
KCGI 271314Z 2713/2812 36012KT P6SM SCT015 BKN026
      TEMPO 2715/2719 BKN035
     FM271900 35011KT P6SM BKN035
     FM272200 36008KT P6SM SCT035
     FM280100 VRB03KT P6SM SKC
      TEMPO 2809/2812 5SM BR=



000
FTUS43 KPAH 271313 AAA
TAFPAH
TAF AMD
KPAH 271313Z 2713/2812 34012KT P6SM SCT015 BKN024
      TEMPO 2715/2719 BKN035
     FM271900 36011KT P6SM BKN035
     FM272300 36008KT P6SM SCT035
     FM280200 VRB03KT P6SM SKC=



000
FTUS43 KPAH 271313 AAA
TAFPAH
TAF AMD
KPAH 271313Z 2713/2812 34012KT P6SM SCT015 BKN024
      TEMPO 2715/2719 BKN035
     FM271900 36011KT P6SM BKN035
     FM272300 36008KT P6SM SCT035
     FM280200 VRB03KT P6SM SKC=



000
FTUS43 KPAH 271120
TAFEVV
TAF
KEVV 271120Z 2712/2812 32008KT P6SM BKN015
      TEMPO 2712/2715 SCT015 BKN025
     FM271500 34011KT P6SM BKN025
     FM271900 34012KT P6SM BKN035
     FM272300 33007KT P6SM SCT035
     FM280200 VRB02KT P6SM SKC=



000
FTUS43 KPAH 271120
TAFCGI
TAF
KCGI 271120Z 2712/2812 35010KT P6SM SCT015 BKN035
      TEMPO 2712/2715 BKN015
     FM271500 36012KT P6SM BKN025
     FM271900 35011KT P6SM BKN035
     FM272200 36008KT P6SM SCT035
     FM280100 VRB03KT P6SM SKC
      TEMPO 2809/2812 5SM BR=



000
FTUS43 KPAH 271120
TAFPAH
TAF
KPAH 271120Z 2712/2812 32008KT P6SM SCT015 BKN035
      TEMPO 2712/2715 BKN015
     FM271500 35010KT P6SM BKN025
     FM271900 36011KT P6SM BKN035
     FM272300 36008KT P6SM SCT035
     FM280200 VRB03KT P6SM SKC=



000
FTUS43 KPAH 271120
TAFEVV
TAF
KEVV 271120Z 2712/2812 32008KT P6SM BKN015
      TEMPO 2712/2715 SCT015 BKN025
     FM271500 34011KT P6SM BKN025
     FM271900 34012KT P6SM BKN035
     FM272300 33007KT P6SM SCT035
     FM280200 VRB02KT P6SM SKC=



000
FTUS43 KPAH 271120
TAFCGI
TAF
KCGI 271120Z 2712/2812 35010KT P6SM SCT015 BKN035
      TEMPO 2712/2715 BKN015
     FM271500 36012KT P6SM BKN025
     FM271900 35011KT P6SM BKN035
     FM272200 36008KT P6SM SCT035
     FM280100 VRB03KT P6SM SKC
      TEMPO 2809/2812 5SM BR=



000
FTUS43 KPAH 271120
TAFPAH
TAF
KPAH 271120Z 2712/2812 32008KT P6SM SCT015 BKN035
      TEMPO 2712/2715 BKN015
     FM271500 35010KT P6SM BKN025
     FM271900 36011KT P6SM BKN035
     FM272300 36008KT P6SM SCT035
     FM280200 VRB03KT P6SM SKC=



000
FTUS43 KPAH 270832 AAB
TAFPAH
TAF AMD
KPAH 270832Z 2709/2806 32007KT P6SM SCT015 BKN050
      TEMPO 2709/2712 BKN015
     FM271600 34010KT P6SM BKN015
     FM271800 34010KT P6SM BKN035
     FM280000 VRB02KT P6SM SKC=



000
FTUS43 KPAH 270832 AAA
TAFEVV
TAF AMD
KEVV 270832Z 2709/2806 32008KT P6SM SCT005 BKN015
     FM271500 32011G18KT P6SM BKN015
     FM271800 33011G16KT P6SM BKN035
     FM280000 33003KT P6SM SKC=



000
FTUS43 KPAH 270831 AAA
TAFCGI
TAF AMD
KCGI 270831Z 2709/2806 34005KT P6SM SCT008 BKN015
     FM271500 34010KT P6SM BKN015
     FM271700 35010KT P6SM BKN035
     FM280000 VRB02KT P6SM SKC=



    US Dept of Commerce
    National Oceanic and Atmospheric Administration
    National Weather Service
    1325 East West Highway
    Silver Spring, MD 20910
    Page Author: NWS Internet Services Team
Disclaimer
Information Quality
Credits
Glossary
Privacy Policy
Freedom of Information Act (FOIA)
About Us
Career Opportunities